sensor_id;sensor_type;location;lat;lon;timestamp;pressure;altitude;pressure_sealevel;temperature;humidity
69780;BME280;57052;55.602;38.096;2023-04-22T00:01:41;99781.88;;;11.69;36.81
69780;BME280;57052;55.602;38.096;2023-04-22T00:04:06;99776.50;;;11.64;36.69
69780;BME280;57052;55.602;38.096;2023-04-22T00:06:33;99791.09;;;11.68;36.94
69780;BME280;57052;55.602;38.096;2023-04-22T00:08:59;99794.91;;;11.67;37.11
69780;BME280;57052;55.602;38.096;2023-04-22T00:11:25;99803.81;;;11.68;36.77
69780;BME280;57052;55.602;38.096;2023-04-22T00:13:51;99803.59;;;11.64;36.99
69780;BME280;57052;55.602;38.096;2023-04-22T00:16:16;99797.94;;;11.60;37.14
69780;BME280;57052;55.602;38.096;2023-04-22T00:18:42;99788.81;;;11.51;37.29
69780;BME280;57052;55.602;38.096;2023-04-22T00:21:08;99796.91;;;11.56;37.30
69780;BME280;57052;55.602;38.096;2023-04-22T00:23:33;99797.47;;;11.53;37.58
69780;BME280;57052;55.602;38.096;2023-04-22T00:25:59;99799.34;;;11.53;37.48
69780;BME280;57052;55.602;38.096;2023-04-22T00:28:26;99792.13;;;11.43;37.54
69780;BME280;57052;55.602;38.096;2023-04-22T00:30:52;99799.72;;;11.46;37.66
69780;BME280;57052;55.602;38.096;2023-04-22T00:33:18;99804.59;;;11.44;37.44
69780;BME280;57052;55.602;38.096;2023-04-22T00:35:46;99795.72;;;11.39;38.29
69780;BME280;57052;55.602;38.096;2023-04-22T00:38:12;99791.88;;;11.40;37.67
69780;BME280;57052;55.602;38.096;2023-04-22T00:40:38;99803.31;;;11.37;37.85
69780;BME280;57052;55.602;38.096;2023-04-22T00:43:03;99798.47;;;11.34;38.28
69780;BME280;57052;55.602;38.096;2023-04-22T00:45:30;99796.84;;;11.33;37.90
69780;BME280;57052;55.602;38.096;2023-04-22T00:47:56;99779.94;;;11.17;38.05
69780;BME280;57052;55.602;38.096;2023-04-22T00:50:22;99793.34;;;11.27;38.17
69780;BME280;57052;55.602;38.096;2023-04-22T00:52:48;99796.94;;;11.23;38.21
69780;BME280;57052;55.602;38.096;2023-04-22T00:55:13;99778.66;;;11.10;38.42
69780;BME280;57052;55.602;38.096;2023-04-22T00:57:40;99794.25;;;11.18;38.29
69780;BME280;57052;55.602;38.096;2023-04-22T01:00:06;99800.28;;;11.15;38.38
69780;BME280;57052;55.602;38.096;2023-04-22T01:02:35;99796.22;;;11.12;38.53
69780;BME280;57052;55.602;38.096;2023-04-22T01:05:01;99801.09;;;11.10;38.58
69780;BME280;57052;55.602;38.096;2023-04-22T01:07:30;99797.34;;;11.06;38.76
69780;BME280;57052;55.602;38.096;2023-04-22T01:09:55;99802.00;;;11.01;38.69
69780;BME280;57052;55.602;38.096;2023-04-22T01:12:21;99799.03;;;11.02;38.79
69780;BME280;57052;55.602;38.096;2023-04-22T01:14:47;99782.59;;;10.88;38.87
69780;BME280;57052;55.602;38.096;2023-04-22T01:17:14;99785.59;;;10.87;39.05
69780;BME280;57052;55.602;38.096;2023-04-22T01:19:40;99793.69;;;10.92;38.83
69780;BME280;57052;55.602;38.096;2023-04-22T01:22:07;99774.78;;;10.82;38.87
69780;BME280;57052;55.602;38.096;2023-04-22T01:24:33;99791.53;;;10.89;39.15
69780;BME280;57052;55.602;38.096;2023-04-22T01:26:59;99783.44;;;10.84;39.19
69780;BME280;57052;55.602;38.096;2023-04-22T01:29:25;99791.56;;;10.84;39.42
69780;BME280;57052;55.602;38.096;2023-04-22T01:31:51;99780.50;;;10.75;39.33
69780;BME280;57052;55.602;38.096;2023-04-22T01:34:17;99790.50;;;10.80;39.60
69780;BME280;57052;55.602;38.096;2023-04-22T01:36:43;99782.13;;;10.76;39.58
69780;BME280;57052;55.602;38.096;2023-04-22T01:39:09;99779.22;;;10.68;39.72
69780;BME280;57052;55.602;38.096;2023-04-22T01:41:35;99766.25;;;10.60;39.57
69780;BME280;57052;55.602;38.096;2023-04-22T01:44:02;99789.50;;;10.66;40.19
69780;BME280;57052;55.602;38.096;2023-04-22T01:46:28;99781.97;;;10.58;39.92
69780;BME280;57052;55.602;38.096;2023-04-22T01:48:53;99792.53;;;10.59;39.86
69780;BME280;57052;55.602;38.096;2023-04-22T01:51:19;99785.53;;;10.53;40.13
69780;BME280;57052;55.602;38.096;2023-04-22T01:53:46;99779.84;;;10.50;39.84
69780;BME280;57052;55.602;38.096;2023-04-22T01:56:12;99790.69;;;10.50;39.81
69780;BME280;57052;55.602;38.096;2023-04-22T01:58:38;99767.75;;;10.37;40.12
69780;BME280;57052;55.602;38.096;2023-04-22T02:01:05;99787.47;;;10.43;40.08
69780;BME280;57052;55.602;38.096;2023-04-22T02:03:31;99773.44;;;10.36;40.75
69780;BME280;57052;55.602;38.096;2023-04-22T02:05:57;99775.09;;;10.37;40.22
69780;BME280;57052;55.602;38.096;2023-04-22T02:08:22;99771.81;;;10.35;40.41
69780;BME280;57052;55.602;38.096;2023-04-22T02:10:48;99786.97;;;10.41;40.38
69780;BME280;57052;55.602;38.096;2023-04-22T02:13:14;99786.44;;;10.39;40.18
69780;BME280;57052;55.602;38.096;2023-04-22T02:15:39;99796.44;;;10.38;40.49
69780;BME280;57052;55.602;38.096;2023-04-22T02:18:08;99792.09;;;10.37;40.39
69780;BME280;57052;55.602;38.096;2023-04-22T02:20:37;99789.69;;;10.36;40.67
69780;BME280;57052;55.602;38.096;2023-04-22T02:23:03;99789.69;;;10.36;40.56
69780;BME280;57052;55.602;38.096;2023-04-22T02:25:29;99788.13;;;10.29;40.80
69780;BME280;57052;55.602;38.096;2023-04-22T02:27:56;99785.13;;;10.31;41.10
69780;BME280;57052;55.602;38.096;2023-04-22T02:30:22;99787.00;;;10.30;40.72
69780;BME280;57052;55.602;38.096;2023-04-22T02:32:47;99784.06;;;10.27;41.13
69780;BME280;57052;55.602;38.096;2023-04-22T02:35:13;99792.19;;;10.27;40.79
69780;BME280;57052;55.602;38.096;2023-04-22T02:37:39;99778.97;;;10.10;41.45
69780;BME280;57052;55.602;38.096;2023-04-22T02:40:05;99761.69;;;10.01;41.22
69780;BME280;57052;55.602;38.096;2023-04-22T02:42:32;99806.25;;;10.24;41.24
69780;BME280;57052;55.602;38.096;2023-04-22T02:44:58;99806.50;;;10.22;40.81
69780;BME280;57052;55.602;38.096;2023-04-22T02:47:24;99813.03;;;10.21;41.24
69780;BME280;57052;55.602;38.096;2023-04-22T02:49:49;99808.69;;;10.20;41.09
69780;BME280;57052;55.602;38.096;2023-04-22T02:52:15;99810.31;;;10.21;41.57
69780;BME280;57052;55.602;38.096;2023-04-22T02:54:41;99804.91;;;10.21;41.47
69780;BME280;57052;55.602;38.096;2023-04-22T02:57:06;99809.25;;;10.17;41.41
69780;BME280;57052;55.602;38.096;2023-04-22T02:59:33;99809.78;;;10.19;42.11
69780;BME280;57052;55.602;38.096;2023-04-22T03:01:59;99808.44;;;10.22;41.48
69780;BME280;57052;55.602;38.096;2023-04-22T03:04:25;99767.13;;;9.96;41.39
69780;BME280;57052;55.602;38.096;2023-04-22T03:06:51;99808.16;;;10.23;41.61
69780;BME280;57052;55.602;38.096;2023-04-22T03:09:17;99813.53;;;10.28;41.71
69780;BME280;57052;55.602;38.096;2023-04-22T03:11:43;99797.31;;;10.23;41.51
69780;BME280;57052;55.602;38.096;2023-04-22T03:14:09;99806.47;;;10.32;41.67
69780;BME280;57052;55.602;38.096;2023-04-22T03:16:35;99815.94;;;10.35;42.01
69780;BME280;57052;55.602;38.096;2023-04-22T03:19:01;99805.63;;;10.37;41.50
69780;BME280;57052;55.602;38.096;2023-04-22T03:21:27;99804.56;;;10.38;42.06
69780;BME280;57052;55.602;38.096;2023-04-22T03:23:53;99801.59;;;10.35;42.01
69780;BME280;57052;55.602;38.096;2023-04-22T03:26:19;99793.22;;;10.36;41.46
69780;BME280;57052;55.602;38.096;2023-04-22T03:28:44;99812.09;;;10.46;41.81
69780;BME280;57052;55.602;38.096;2023-04-22T03:31:10;99820.75;;;10.48;41.61
69780;BME280;57052;55.602;38.096;2023-04-22T03:33:36;99821.00;;;10.52;41.37
69780;BME280;57052;55.602;38.096;2023-04-22T03:36:02;99813.97;;;10.51;41.69
69780;BME280;57052;55.602;38.096;2023-04-22T03:38:27;99808.03;;;10.49;41.50
69780;BME280;57052;55.602;38.096;2023-04-22T03:40:53;99815.00;;;10.55;41.44
69780;BME280;57052;55.602;38.096;2023-04-22T03:43:18;99814.47;;;10.53;41.21
69780;BME280;57052;55.602;38.096;2023-04-22T03:45:44;99786.13;;;10.40;41.73
69780;BME280;57052;55.602;38.096;2023-04-22T03:48:10;99830.41;;;10.64;41.79
69780;BME280;57052;55.602;38.096;2023-04-22T03:50:35;99827.41;;;10.66;41.60
69780;BME280;57052;55.602;38.096;2023-04-22T03:53:01;99834.69;;;10.70;41.41
69780;BME280;57052;55.602;38.096;2023-04-22T03:55:27;99817.66;;;10.65;41.42
69780;BME280;57052;55.602;38.096;2023-04-22T03:57:52;99830.06;;;10.76;41.29
69780;BME280;57052;55.602;38.096;2023-04-22T04:00:18;99832.72;;;10.81;41.41
69780;BME280;57052;55.602;38.096;2023-04-22T04:02:44;99835.41;;;10.86;41.37
69780;BME280;57052;55.602;38.096;2023-04-22T04:05:09;99833.47;;;10.91;41.51
69780;BME280;57052;55.602;38.096;2023-04-22T04:07:36;99838.03;;;10.96;41.37
69780;BME280;57052;55.602;38.096;2023-04-22T04:10:02;99841.78;;;11.00;41.34
69780;BME280;57052;55.602;38.096;2023-04-22T04:12:29;99824.22;;;10.98;41.75
69780;BME280;57052;55.602;38.096;2023-04-22T04:14:55;99831.47;;;11.07;41.29
69780;BME280;57052;55.602;38.096;2023-04-22T04:17:21;99835.50;;;11.15;41.13
69780;BME280;57052;55.602;38.096;2023-04-22T04:19:53;99833.03;;;11.13;41.63
69780;BME280;57052;55.602;38.096;2023-04-22T04:22:19;99827.59;;;11.18;41.34
69780;BME280;57052;55.602;38.096;2023-04-22T04:24:45;99828.63;;;11.22;41.27
69780;BME280;57052;55.602;38.096;2023-04-22T04:27:12;99822.59;;;11.30;41.05
69780;BME280;57052;55.602;38.096;2023-04-22T04:29:38;99834.22;;;11.36;41.39
69780;BME280;57052;55.602;38.096;2023-04-22T04:32:06;99836.59;;;11.42;41.06
69780;BME280;57052;55.602;38.096;2023-04-22T04:34:33;99834.66;;;11.48;41.11
69780;BME280;57052;55.602;38.096;2023-04-22T04:36:59;99832.44;;;11.50;40.64
69780;BME280;57052;55.602;38.096;2023-04-22T04:39:25;99841.31;;;11.60;40.70
69780;BME280;57052;55.602;38.096;2023-04-22T04:41:54;99777.16;;;11.22;40.74
69780;BME280;57052;55.602;38.096;2023-04-22T04:44:20;99835.31;;;11.64;40.49
69780;BME280;57052;55.602;38.096;2023-04-22T04:46:47;99846.91;;;11.74;40.60
69780;BME280;57052;55.602;38.096;2023-04-22T04:49:12;99842.78;;;11.82;40.32
69780;BME280;57052;55.602;38.096;2023-04-22T04:51:38;99797.13;;;11.60;40.68
69780;BME280;57052;55.602;38.096;2023-04-22T04:54:04;99834.56;;;11.87;40.29
69780;BME280;57052;55.602;38.096;2023-04-22T04:56:30;99842.09;;;11.95;39.80
69780;BME280;57052;55.602;38.096;2023-04-22T04:58:56;99846.00;;;12.07;40.17
69780;BME280;57052;55.602;38.096;2023-04-22T05:01:22;99851.34;;;12.12;39.69
69780;BME280;57052;55.602;38.096;2023-04-22T05:03:47;99845.59;;;12.19;39.79
69780;BME280;57052;55.602;38.096;2023-04-22T05:06:13;99850.69;;;12.26;39.82
69780;BME280;57052;55.602;38.096;2023-04-22T05:08:39;99845.19;;;12.31;39.53
69780;BME280;57052;55.602;38.096;2023-04-22T05:11:06;99853.00;;;12.37;39.79
69780;BME280;57052;55.602;38.096;2023-04-22T05:13:31;99852.94;;;12.42;39.63
69780;BME280;57052;55.602;38.096;2023-04-22T05:15:57;99847.13;;;12.49;39.29
69780;BME280;57052;55.602;38.096;2023-04-22T05:18:24;99849.78;;;12.54;39.08
69780;BME280;57052;55.602;38.096;2023-04-22T05:20:50;99853.44;;;12.63;39.49
69780;BME280;57052;55.602;38.096;2023-04-22T05:23:15;99851.47;;;12.68;39.34
69780;BME280;57052;55.602;38.096;2023-04-22T05:25:41;99844.97;;;12.69;39.13
69780;BME280;57052;55.602;38.096;2023-04-22T05:28:07;99842.19;;;12.74;39.21
69780;BME280;57052;55.602;38.096;2023-04-22T05:30:33;99845.25;;;12.86;39.01
69780;BME280;57052;55.602;38.096;2023-04-22T05:32:58;99842.16;;;12.93;38.60
69780;BME280;57052;55.602;38.096;2023-04-22T05:35:25;99850.25;;;12.98;38.45
69780;BME280;57052;55.602;38.096;2023-04-22T05:37:51;99850.66;;;13.05;38.44
69780;BME280;57052;55.602;38.096;2023-04-22T05:40:17;99836.03;;;13.06;38.66
69780;BME280;57052;55.602;38.096;2023-04-22T05:42:43;99834.63;;;13.09;38.27
69780;BME280;57052;55.602;38.096;2023-04-22T05:45:09;99840.91;;;13.23;37.83
69780;BME280;57052;55.602;38.096;2023-04-22T05:47:35;99848.72;;;13.29;37.86
69780;BME280;57052;55.602;38.096;2023-04-22T05:50:00;99837.84;;;13.29;37.73
69780;BME280;57052;55.602;38.096;2023-04-22T05:52:26;99834.44;;;13.37;37.56
69780;BME280;57052;55.602;38.096;2023-04-22T05:54:52;99844.84;;;13.49;37.29
69780;BME280;57052;55.602;38.096;2023-04-22T05:57:18;99841.22;;;13.54;37.51
69780;BME280;57052;55.602;38.096;2023-04-22T05:59:43;99852.44;;;13.66;37.49
69780;BME280;57052;55.602;38.096;2023-04-22T06:02:09;99850.94;;;13.73;37.18
69780;BME280;57052;55.602;38.096;2023-04-22T06:04:35;99847.03;;;13.79;37.24
69780;BME280;57052;55.602;38.096;2023-04-22T06:07:00;99841.50;;;13.84;37.13
69780;BME280;57052;55.602;38.096;2023-04-22T06:09:26;99844.72;;;13.86;36.42
69780;BME280;57052;55.602;38.096;2023-04-22T06:11:51;99852.19;;;13.94;36.47
69780;BME280;57052;55.602;38.096;2023-04-22T06:14:17;99848.56;;;13.99;36.61
69780;BME280;57052;55.602;38.096;2023-04-22T06:16:43;99848.16;;;14.05;36.38
69780;BME280;57052;55.602;38.096;2023-04-22T06:19:08;99835.25;;;14.11;36.41
69780;BME280;57052;55.602;38.096;2023-04-22T06:21:34;99846.66;;;14.27;36.37
69780;BME280;57052;55.602;38.096;2023-04-22T06:24:02;99841.03;;;14.37;36.28
69780;BME280;57052;55.602;38.096;2023-04-22T06:26:30;99841.44;;;14.44;35.89
69780;BME280;57052;55.602;38.096;2023-04-22T06:28:56;99839.75;;;14.48;35.68
69780;BME280;57052;55.602;38.096;2023-04-22T06:31:22;99837.19;;;14.51;35.20
69780;BME280;57052;55.602;38.096;2023-04-22T06:33:47;99832.75;;;14.55;35.40
69780;BME280;57052;55.602;38.096;2023-04-22T06:36:13;99828.81;;;14.61;35.16
69780;BME280;57052;55.602;38.096;2023-04-22T06:38:39;99822.03;;;14.59;35.05
69780;BME280;57052;55.602;38.096;2023-04-22T06:41:04;99838.06;;;14.74;34.88
69780;BME280;57052;55.602;38.096;2023-04-22T06:43:30;99834.91;;;14.81;34.53
69780;BME280;57052;55.602;38.096;2023-04-22T06:45:56;99829.16;;;14.82;34.61
69780;BME280;57052;55.602;38.096;2023-04-22T06:48:22;99826.31;;;14.87;34.60
69780;BME280;57052;55.602;38.096;2023-04-22T06:50:48;99823.16;;;14.94;34.07
69780;BME280;57052;55.602;38.096;2023-04-22T06:53:14;99826.78;;;15.03;34.30
69780;BME280;57052;55.602;38.096;2023-04-22T06:55:40;99818.16;;;15.09;34.27
69780;BME280;57052;55.602;38.096;2023-04-22T06:58:06;99813.69;;;15.13;34.04
69780;BME280;57052;55.602;38.096;2023-04-22T07:00:32;99786.19;;;15.01;33.84
69780;BME280;57052;55.602;38.096;2023-04-22T07:02:58;99818.97;;;15.32;33.72
69780;BME280;57052;55.602;38.096;2023-04-22T07:05:24;99824.31;;;15.37;33.68
69780;BME280;57052;55.602;38.096;2023-04-22T07:07:49;99825.19;;;15.46;33.30
69780;BME280;57052;55.602;38.096;2023-04-22T07:10:15;99831.66;;;15.50;33.36
69780;BME280;57052;55.602;38.096;2023-04-22T07:12:41;99827.66;;;15.56;32.85
69780;BME280;57052;55.602;38.096;2023-04-22T07:15:07;99835.72;;;15.61;32.75
69780;BME280;57052;55.602;38.096;2023-04-22T07:17:33;99831.06;;;15.62;32.48
69780;BME280;57052;55.602;38.096;2023-04-22T07:19:59;99814.16;;;15.51;32.69
69780;BME280;57052;55.602;38.096;2023-04-22T07:22:24;99804.03;;;15.52;32.68
69780;BME280;57052;55.602;38.096;2023-04-22T07:24:50;99830.59;;;15.68;32.82
69780;BME280;57052;55.602;38.096;2023-04-22T07:27:16;99818.25;;;15.71;32.66
69780;BME280;57052;55.602;38.096;2023-04-22T07:29:41;99819.75;;;15.77;32.28
69780;BME280;57052;55.602;38.096;2023-04-22T07:32:07;99830.06;;;15.88;32.39
69780;BME280;57052;55.602;38.096;2023-04-22T07:34:33;99825.28;;;15.94;31.82
69780;BME280;57052;55.602;38.096;2023-04-22T07:36:59;99823.56;;;15.98;31.56
69780;BME280;57052;55.602;38.096;2023-04-22T07:39:25;99826.16;;;16.03;31.74
69780;BME280;57052;55.602;38.096;2023-04-22T07:41:50;99818.09;;;15.98;31.46
69780;BME280;57052;55.602;38.096;2023-04-22T07:44:17;99814.72;;;16.01;31.16
69780;BME280;57052;55.602;38.096;2023-04-22T07:46:46;99815.72;;;16.14;31.18
69780;BME280;57052;55.602;38.096;2023-04-22T07:49:13;99814.34;;;16.25;31.07
69780;BME280;57052;55.602;38.096;2023-04-22T07:51:39;99820.78;;;16.37;30.78
69780;BME280;57052;55.602;38.096;2023-04-22T07:54:05;99827.56;;;16.48;30.75
69780;BME280;57052;55.602;38.096;2023-04-22T07:56:32;99818.88;;;16.46;30.56
69780;BME280;57052;55.602;38.096;2023-04-22T07:58:58;99824.19;;;16.51;30.51
69780;BME280;57052;55.602;38.096;2023-04-22T08:01:24;99825.84;;;16.52;30.53
69780;BME280;57052;55.602;38.096;2023-04-22T08:03:49;99818.25;;;16.49;30.50
69780;BME280;57052;55.602;38.096;2023-04-22T08:06:15;99819.34;;;16.48;30.31
69780;BME280;57052;55.602;38.096;2023-04-22T08:08:41;99831.97;;;16.58;30.35
69780;BME280;57052;55.602;38.096;2023-04-22T08:11:06;99821.81;;;16.58;30.10
69780;BME280;57052;55.602;38.096;2023-04-22T08:13:32;99826.16;;;16.59;29.88
69780;BME280;57052;55.602;38.096;2023-04-22T08:15:59;99824.06;;;16.56;29.77
69780;BME280;57052;55.602;38.096;2023-04-22T08:18:25;99783.31;;;16.29;30.06
69780;BME280;57052;55.602;38.096;2023-04-22T08:20:50;99832.13;;;16.61;30.06
69780;BME280;57052;55.602;38.096;2023-04-22T08:23:16;99823.91;;;16.61;29.86
69780;BME280;57052;55.602;38.096;2023-04-22T08:25:42;99827.63;;;16.65;29.87
69780;BME280;57052;55.602;38.096;2023-04-22T08:28:07;99827.34;;;16.76;29.79
69780;BME280;57052;55.602;38.096;2023-04-22T08:30:33;99829.75;;;16.86;29.87
69780;BME280;57052;55.602;38.096;2023-04-22T08:32:59;99819.78;;;16.98;29.90
69780;BME280;57052;55.602;38.096;2023-04-22T08:35:24;99824.44;;;17.15;29.42
69780;BME280;57052;55.602;38.096;2023-04-22T08:37:50;99813.69;;;17.18;28.91
69780;BME280;57052;55.602;38.096;2023-04-22T08:40:16;99819.91;;;17.45;28.61
69780;BME280;57052;55.602;38.096;2023-04-22T08:42:43;99824.72;;;17.56;27.96
69780;BME280;57052;55.602;38.096;2023-04-22T08:45:09;99813.13;;;17.59;28.16
69780;BME280;57052;55.602;38.096;2023-04-22T08:47:36;99816.97;;;17.75;28.20
69780;BME280;57052;55.602;38.096;2023-04-22T08:50:04;99825.47;;;17.82;28.00
69780;BME280;57052;55.602;38.096;2023-04-22T08:52:31;99822.63;;;17.70;27.84
69780;BME280;57052;55.602;38.096;2023-04-22T08:54:57;99809.75;;;17.62;27.79
69780;BME280;57052;55.602;38.096;2023-04-22T08:57:24;99818.91;;;17.66;27.92
69780;BME280;57052;55.602;38.096;2023-04-22T08:59:50;99816.34;;;17.61;27.86
69780;BME280;57052;55.602;38.096;2023-04-22T09:02:19;99812.66;;;17.57;27.90
69780;BME280;57052;55.602;38.096;2023-04-22T09:04:46;99824.25;;;17.63;28.00
69780;BME280;57052;55.602;38.096;2023-04-22T09:07:20;99817.63;;;17.64;27.77
69780;BME280;57052;55.602;38.096;2023-04-22T09:09:47;99807.94;;;17.75;27.94
69780;BME280;57052;55.602;38.096;2023-04-22T09:12:13;99819.97;;;17.91;28.00
69780;BME280;57052;55.602;38.096;2023-04-22T09:14:38;99821.09;;;17.99;27.63
69780;BME280;57052;55.602;38.096;2023-04-22T09:17:04;99820.09;;;18.03;27.53
69780;BME280;57052;55.602;38.096;2023-04-22T09:19:30;99817.94;;;18.09;27.38
69780;BME280;57052;55.602;38.096;2023-04-22T09:21:59;99814.84;;;18.19;26.91
69780;BME280;57052;55.602;38.096;2023-04-22T09:24:24;99800.38;;;18.39;27.44
69780;BME280;57052;55.602;38.096;2023-04-22T09:26:50;99806.28;;;18.58;27.43
69780;BME280;57052;55.602;38.096;2023-04-22T09:29:16;99815.03;;;18.72;27.04
69780;BME280;57052;55.602;38.096;2023-04-22T09:31:47;99816.28;;;18.83;26.63
69780;BME280;57052;55.602;38.096;2023-04-22T09:34:13;99822.13;;;18.94;26.75
69780;BME280;57052;55.602;38.096;2023-04-22T09:36:41;99794.25;;;18.92;26.45
69780;BME280;57052;55.602;38.096;2023-04-22T09:39:08;99812.03;;;19.06;26.60
69780;BME280;57052;55.602;38.096;2023-04-22T09:41:38;99810.69;;;19.12;26.72
69780;BME280;57052;55.602;38.096;2023-04-22T09:44:08;99810.94;;;19.19;25.86
69780;BME280;57052;55.602;38.096;2023-04-22T09:46:34;99801.38;;;19.26;25.98
69780;BME280;57052;55.602;38.096;2023-04-22T09:49:00;99803.25;;;19.34;26.05
69780;BME280;57052;55.602;38.096;2023-04-22T09:51:27;99804.44;;;19.45;26.00
69780;BME280;57052;55.602;38.096;2023-04-22T09:54:04;99804.47;;;19.57;24.40
69780;BME280;57052;55.602;38.096;2023-04-22T09:56:49;99801.66;;;19.77;25.28
69780;BME280;57052;55.602;38.096;2023-04-22T09:59:21;99801.34;;;19.91;25.37
69780;BME280;57052;55.602;38.096;2023-04-22T10:01:47;99801.34;;;19.91;24.95
69780;BME280;57052;55.602;38.096;2023-04-22T10:04:13;99807.75;;;20.07;25.56
69780;BME280;57052;55.602;38.096;2023-04-22T10:06:40;99808.25;;;20.21;25.14
69780;BME280;57052;55.602;38.096;2023-04-22T10:09:06;99803.44;;;20.42;25.05
69780;BME280;57052;55.602;38.096;2023-04-22T10:11:33;99802.72;;;20.70;25.06
69780;BME280;57052;55.602;38.096;2023-04-22T10:13:59;99813.13;;;20.88;24.64
69780;BME280;57052;55.602;38.096;2023-04-22T10:16:30;99803.69;;;21.01;24.30
69780;BME280;57052;55.602;38.096;2023-04-22T10:19:00;99811.94;;;21.01;24.07
69780;BME280;57052;55.602;38.096;2023-04-22T10:21:29;99819.63;;;20.96;23.80
69780;BME280;57052;55.602;38.096;2023-04-22T10:23:58;99804.59;;;21.05;23.67
69780;BME280;57052;55.602;38.096;2023-04-22T10:26:56;99816.06;;;21.35;23.35
69780;BME280;57052;55.602;38.096;2023-04-22T10:29:23;99790.16;;;21.52;23.71
69780;BME280;57052;55.602;38.096;2023-04-22T10:32:22;99804.88;;;21.71;22.62
69780;BME280;57052;55.602;38.096;2023-04-22T10:34:49;99793.66;;;21.80;23.19
69780;BME280;57052;55.602;38.096;2023-04-22T10:37:19;99778.09;;;21.72;22.57
69780;BME280;57052;55.602;38.096;2023-04-22T10:40:16;99791.63;;;21.77;21.47
69780;BME280;57052;55.602;38.096;2023-04-22T10:42:48;99799.31;;;21.99;22.33
69780;BME280;57052;55.602;38.096;2023-04-22T10:45:15;99803.28;;;22.33;22.87
69780;BME280;57052;55.602;38.096;2023-04-22T10:47:41;99793.75;;;22.62;22.67
69780;BME280;57052;55.602;38.096;2023-04-22T10:50:15;99795.09;;;22.87;21.95
69780;BME280;57052;55.602;38.096;2023-04-22T10:52:45;99786.59;;;22.76;21.79
69780;BME280;57052;55.602;38.096;2023-04-22T10:55:11;99802.34;;;22.60;21.60
69780;BME280;57052;55.602;38.096;2023-04-22T10:57:41;99809.41;;;22.42;20.70
69780;BME280;57052;55.602;38.096;2023-04-22T11:00:27;99798.72;;;22.56;21.12
69780;BME280;57052;55.602;38.096;2023-04-22T11:03:09;99787.81;;;22.79;19.77
69780;BME280;57052;55.602;38.096;2023-04-22T11:05:35;99799.38;;;23.04;20.84
69780;BME280;57052;55.602;38.096;2023-04-22T11:08:27;99794.59;;;23.01;19.64
69780;BME280;57052;55.602;38.096;2023-04-22T11:10:51;99785.94;;;23.21;20.22
69780;BME280;57052;55.602;38.096;2023-04-22T11:13:19;99788.91;;;23.32;20.57
69780;BME280;57052;55.602;38.096;2023-04-22T11:15:53;99774.06;;;23.59;19.94
69780;BME280;57052;55.602;38.096;2023-04-22T11:18:21;99787.03;;;24.00;19.99
69780;BME280;57052;55.602;38.096;2023-04-22T11:20:49;99772.94;;;24.32;20.00
69780;BME280;57052;55.602;38.096;2023-04-22T11:23:22;99774.22;;;24.64;18.13
69780;BME280;57052;55.602;38.096;2023-04-22T11:25:53;99773.03;;;24.91;18.35
69780;BME280;57052;55.602;38.096;2023-04-22T11:28:19;99776.81;;;25.09;19.01
69780;BME280;57052;55.602;38.096;2023-04-22T11:30:47;99764.13;;;25.08;18.99
69780;BME280;57052;55.602;38.096;2023-04-22T11:33:14;99777.38;;;25.25;18.93
69780;BME280;57052;55.602;38.096;2023-04-22T11:35:40;99787.97;;;25.16;18.88
69780;BME280;57052;55.602;38.096;2023-04-22T11:38:07;99779.06;;;25.00;18.64
69780;BME280;57052;55.602;38.096;2023-04-22T11:40:36;99776.31;;;24.74;19.01
69780;BME280;57052;55.602;38.096;2023-04-22T11:43:03;99770.53;;;24.56;18.97
69780;BME280;57052;55.602;38.096;2023-04-22T11:45:32;99773.88;;;24.69;18.88
69780;BME280;57052;55.602;38.096;2023-04-22T11:47:59;99762.75;;;24.65;19.06
69780;BME280;57052;55.602;38.096;2023-04-22T11:50:33;99757.19;;;24.62;18.71
69780;BME280;57052;55.602;38.096;2023-04-22T11:53:01;99762.59;;;24.81;18.49
69780;BME280;57052;55.602;38.096;2023-04-22T11:55:29;99750.91;;;24.65;18.09
69780;BME280;57052;55.602;38.096;2023-04-22T11:58:00;99759.22;;;24.95;17.66
69780;BME280;57052;55.602;38.096;2023-04-22T12:00:31;99754.81;;;25.23;17.31
69780;BME280;57052;55.602;38.096;2023-04-22T12:03:06;99754.41;;;25.58;17.13
69780;BME280;57052;55.602;38.096;2023-04-22T12:08:05;99763.47;;;25.52;17.45
69780;BME280;57052;55.602;38.096;2023-04-22T12:10:31;99761.75;;;25.40;17.59
69780;BME280;57052;55.602;38.096;2023-04-22T12:12:59;99755.06;;;25.44;17.58
69780;BME280;57052;55.602;38.096;2023-04-22T12:15:25;99756.56;;;25.38;17.38
69780;BME280;57052;55.602;38.096;2023-04-22T12:17:51;99757.13;;;25.18;17.55
69780;BME280;57052;55.602;38.096;2023-04-22T12:20:17;99760.69;;;25.18;17.79
69780;BME280;57052;55.602;38.096;2023-04-22T12:22:43;99749.91;;;25.10;18.01
69780;BME280;57052;55.602;38.096;2023-04-22T12:25:09;99756.34;;;25.17;17.62
69780;BME280;57052;55.602;38.096;2023-04-22T12:27:35;99753.78;;;25.35;17.73
69780;BME280;57052;55.602;38.096;2023-04-22T12:30:02;99753.44;;;25.43;17.56
69780;BME280;57052;55.602;38.096;2023-04-22T12:32:30;99737.09;;;25.31;17.63
69780;BME280;57052;55.602;38.096;2023-04-22T12:34:56;99749.34;;;25.30;17.49
69780;BME280;57052;55.602;38.096;2023-04-22T12:37:22;99743.81;;;25.30;17.73
69780;BME280;57052;55.602;38.096;2023-04-22T12:39:47;99742.50;;;25.17;17.62
69780;BME280;57052;55.602;38.096;2023-04-22T12:42:13;99737.97;;;25.02;17.65
69780;BME280;57052;55.602;38.096;2023-04-22T12:44:39;99745.00;;;24.96;17.58
69780;BME280;57052;55.602;38.096;2023-04-22T12:47:04;99739.94;;;24.72;17.34
69780;BME280;57052;55.602;38.096;2023-04-22T12:49:30;99742.06;;;24.56;17.66
69780;BME280;57052;55.602;38.096;2023-04-22T12:51:56;99752.41;;;24.33;18.03